createdAt,value
2024-01-28T00:01:22.382Z,1.26
2024-01-28T00:03:24.262Z,1.24
2024-01-28T00:05:28.409Z,1.27
2024-01-28T00:07:31.160Z,1.24
2024-01-28T00:09:33.901Z,1.23
2024-01-28T00:11:35.784Z,1.20
2024-01-28T00:13:38.545Z,1.19
2024-01-28T00:15:41.702Z,1.24
2024-01-28T00:17:43.518Z,1.27
2024-01-28T00:19:46.429Z,1.25
2024-01-28T00:21:50.712Z,1.24
2024-01-28T00:23:53.442Z,1.26
2024-01-28T00:25:56.189Z,1.23
2024-01-28T00:27:57.901Z,1.21
2024-01-28T00:30:00.661Z,1.23
2024-01-28T00:32:03.814Z,1.18
2024-01-28T00:34:06.703Z,1.22
2024-01-28T00:36:09.650Z,1.15
2024-01-28T00:38:13.915Z,1.13
2024-01-28T00:40:16.875Z,1.14
2024-01-28T00:42:19.866Z,1.15
2024-01-28T00:44:22.601Z,1.17
2024-01-28T00:46:25.367Z,1.17
2024-01-28T00:48:28.258Z,1.14
2024-01-28T00:50:31.108Z,1.14
2024-01-28T00:52:33.836Z,1.16
2024-01-28T00:54:38.516Z,1.17
2024-01-28T00:56:41.316Z,1.18
2024-01-28T00:58:44.154Z,1.20
2024-01-28T01:00:47.073Z,1.19
2024-01-28T01:02:49.919Z,1.11
2024-01-28T01:04:52.633Z,1.14
2024-01-28T01:06:54.635Z,1.07
2024-01-28T01:08:57.401Z,1.05
2024-01-28T01:11:04.439Z,1.08
2024-01-28T01:13:06.208Z,1.09
2024-01-28T01:15:09.733Z,1.16
2024-01-28T01:17:12.552Z,1.17
2024-01-28T01:19:15.512Z,1.25
2024-01-28T01:21:18.342Z,1.26
2024-01-28T01:23:21.417Z,1.27
2024-01-28T01:25:24.185Z,1.27
2024-01-28T01:27:28.276Z,1.25
2024-01-28T01:29:31.088Z,1.24
2024-01-28T01:31:34.090Z,1.22
2024-01-28T01:33:37.015Z,1.21
2024-01-28T01:35:39.845Z,1.20
2024-01-28T01:37:42.769Z,1.16
2024-01-28T01:39:45.538Z,1.19
2024-01-28T01:41:48.699Z,1.12
2024-01-28T01:43:52.846Z,1.05
2024-01-28T01:45:55.777Z,1.01
2024-01-28T01:47:58.571Z,0.99
2024-01-28T01:50:01.559Z,0.86
2024-01-28T01:52:05.473Z,0.81
2024-01-28T01:54:08.944Z,0.68
2024-01-28T01:56:12.622Z,0.68
2024-01-28T01:58:18.025Z,0.65
2024-01-28T02:00:22.336Z,0.62
2024-01-28T02:02:26.389Z,0.57
2024-01-28T02:04:29.732Z,0.57
2024-01-28T02:06:32.659Z,0.54
2024-01-28T02:08:35.516Z,0.58
2024-01-28T02:10:38.352Z,0.60
2024-01-28T02:12:41.290Z,0.53
2024-01-28T02:14:43.162Z,0.50
2024-01-28T02:16:49.197Z,0.53
2024-01-28T02:18:52.101Z,0.52
2024-01-28T02:20:54.930Z,0.57
2024-01-28T02:22:58.691Z,0.62
2024-01-28T02:25:04.380Z,0.66
2024-01-28T02:27:06.336Z,0.63
2024-01-28T02:29:09.173Z,0.66
2024-01-28T02:31:11.960Z,0.65
2024-01-28T02:33:15.156Z,0.66
2024-01-28T02:35:23.894Z,0.67
2024-01-28T02:37:26.670Z,0.63
2024-01-28T02:39:29.532Z,0.55
2024-01-28T02:41:33.657Z,0.54
2024-01-28T02:43:36.837Z,0.48
2024-01-28T02:45:39.708Z,0.41
2024-01-28T02:47:42.710Z,0.38
2024-01-28T02:49:45.541Z,0.35
2024-01-28T02:51:48.360Z,0.34
2024-01-28T02:53:51.167Z,0.34
2024-01-28T02:55:57.602Z,0.39
2024-01-28T02:58:00.753Z,0.39
2024-01-28T03:00:04.770Z,0.35
2024-01-28T03:02:07.526Z,0.34
2024-01-28T03:04:10.356Z,0.32
2024-01-28T03:06:13.199Z,0.28
2024-01-28T03:08:16.073Z,0.28
2024-01-28T03:10:18.800Z,0.27
2024-01-28T03:12:21.666Z,0.29
2024-01-28T03:14:25.828Z,0.28
2024-01-28T03:16:28.599Z,0.21
2024-01-28T03:18:31.503Z,0.19
2024-01-28T03:20:33.333Z,0.14
2024-01-28T03:22:36.031Z,0.13
2024-01-28T03:24:41.275Z,0.12
2024-01-28T03:26:44.020Z,0.09
2024-01-28T03:28:46.110Z,0.05
2024-01-28T03:30:50.643Z,0.06
2024-01-28T03:32:52.520Z,0.04
2024-01-28T03:34:55.422Z,-0.03
2024-01-28T03:36:58.884Z,-0.05
2024-01-28T03:39:00.655Z,-0.06
2024-01-28T03:41:03.599Z,-0.04
2024-01-28T03:43:06.446Z,-0.13
2024-01-28T03:45:11.632Z,-0.20
2024-01-28T03:47:15.824Z,-0.21
2024-01-28T03:49:19.036Z,-0.22
2024-01-28T03:51:21.897Z,-0.20
2024-01-28T03:53:24.689Z,-0.23
2024-01-28T03:55:27.573Z,-0.23
2024-01-28T03:57:30.453Z,-0.20
2024-01-28T03:59:33.205Z,-0.05
2024-01-28T04:01:36.337Z,-0.14
2024-01-28T04:03:40.968Z,-0.14
2024-01-28T04:05:44.598Z,-0.14
2024-01-28T04:07:47.447Z,-0.12
2024-01-28T04:09:50.278Z,-0.09
2024-01-28T04:11:53.167Z,-0.06
2024-01-28T04:13:57.461Z,-0.03
2024-01-28T04:16:00.376Z,-0.06
2024-01-28T04:18:03.485Z,-0.09
2024-01-28T04:20:09.668Z,-0.16
2024-01-28T04:22:12.497Z,-0.13
2024-01-28T04:24:14.352Z,-0.22
2024-01-28T04:26:17.091Z,-0.24
2024-01-28T04:28:19.887Z,-0.24
2024-01-28T04:30:22.961Z,-0.22
2024-01-28T04:32:25.699Z,-0.22
2024-01-28T04:34:27.597Z,-0.19
2024-01-28T04:36:32.347Z,-0.17
2024-01-28T04:38:35.936Z,-0.18
2024-01-28T04:40:38.647Z,-0.24
2024-01-28T04:42:41.463Z,-0.31
2024-01-28T04:44:44.192Z,-0.42
2024-01-28T04:46:46.913Z,-0.40
2024-01-28T04:48:49.827Z,-0.47
2024-01-28T04:50:52.595Z,-0.51
2024-01-28T04:52:56.698Z,-0.54
2024-01-28T04:54:59.812Z,-0.57
2024-01-28T04:57:02.751Z,-0.55
2024-01-28T04:59:05.306Z,-0.61
2024-01-28T05:01:08.242Z,-0.54
2024-01-28T05:03:11.193Z,-0.50
2024-01-28T05:05:14.302Z,-0.44
2024-01-28T05:07:18.691Z,-0.40
2024-01-28T05:09:23.277Z,-0.39
2024-01-28T05:11:26.976Z,-0.34
2024-01-28T05:13:30.666Z,-0.30
2024-01-28T05:15:33.438Z,-0.27
2024-01-28T05:17:36.893Z,-0.25
2024-01-28T05:19:39.824Z,-0.23
2024-01-28T05:21:42.736Z,-0.22
2024-01-28T05:23:45.455Z,-0.21
2024-01-28T05:25:49.591Z,-0.23
2024-01-28T05:27:52.392Z,-0.26
2024-01-28T05:29:56.968Z,-0.27
2024-01-28T05:31:59.667Z,-0.29
2024-01-28T05:34:02.072Z,-0.29
2024-01-28T05:36:12.072Z,-0.36
2024-01-28T05:38:14.851Z,-0.35
2024-01-28T05:40:17.726Z,-0.34
2024-01-28T05:42:20.916Z,-0.39
2024-01-28T05:44:23.891Z,-0.41
2024-01-28T05:46:26.692Z,-0.44
2024-01-28T05:48:29.701Z,-0.47
2024-01-28T05:50:32.576Z,-0.47
2024-01-28T05:52:35.346Z,-0.49
2024-01-28T05:54:42.628Z,-0.53
2024-01-28T05:56:45.510Z,-0.55
2024-01-28T05:58:50.523Z,-0.54
2024-01-28T06:00:53.444Z,-0.55
2024-01-28T06:02:56.637Z,-0.50
2024-01-28T06:05:00.371Z,-0.53
2024-01-28T06:07:04.578Z,-0.56
2024-01-28T06:09:07.562Z,-0.62
2024-01-28T06:11:10.288Z,-0.61
2024-01-28T06:13:13.096Z,-0.66
2024-01-28T06:15:17.414Z,-0.65
2024-01-28T06:17:20.184Z,-0.64
2024-01-28T06:19:22.045Z,-0.66
2024-01-28T06:21:24.921Z,-0.69
2024-01-28T06:23:27.742Z,-0.78
2024-01-28T06:25:30.468Z,-0.82
2024-01-28T06:27:33.235Z,-0.84
2024-01-28T06:29:35.975Z,-0.84
2024-01-28T06:31:40.030Z,-0.83
2024-01-28T06:33:43.129Z,-0.84
2024-01-28T06:35:45.921Z,-0.90
2024-01-28T06:37:49.196Z,-0.92
2024-01-28T06:39:53.244Z,-0.90
2024-01-28T06:41:56.110Z,2.86
2024-01-28T06:43:58.829Z,2.30
2024-01-28T06:46:01.671Z,1.93
2024-01-28T06:48:06.563Z,1.58
2024-01-28T06:50:10.349Z,1.21
2024-01-28T06:52:13.253Z,0.72
2024-01-28T06:54:16.049Z,0.29
2024-01-28T06:56:18.820Z,-0.05
2024-01-28T06:58:21.799Z,-0.30
2024-01-28T07:00:23.838Z,-0.45
2024-01-28T07:02:26.767Z,-0.52
2024-01-28T07:04:30.953Z,-0.61
2024-01-28T07:06:33.956Z,-0.63
2024-01-28T07:08:36.720Z,-0.74
2024-01-28T07:10:39.827Z,-0.77
2024-01-28T07:12:43.805Z,-0.79
2024-01-28T07:14:46.731Z,-0.83
2024-01-28T07:16:49.470Z,-0.81
2024-01-28T07:18:53.597Z,-0.80
2024-01-28T07:20:57.748Z,-0.77
2024-01-28T07:23:00.484Z,-0.73
2024-01-28T07:25:03.968Z,-0.69
2024-01-28T07:27:07.730Z,-0.61
2024-01-28T07:29:10.512Z,-0.51
2024-01-28T07:31:13.256Z,-0.44
2024-01-28T07:33:17.299Z,-0.40
2024-01-28T07:35:20.167Z,-0.36
2024-01-28T07:37:24.209Z,-0.34
2024-01-28T07:39:27.411Z,-0.25
2024-01-28T07:41:30.337Z,-0.15
2024-01-28T07:43:33.081Z,-0.10
2024-01-28T07:45:38.567Z,-0.04
2024-01-28T07:47:43.580Z,-0.01
2024-01-28T07:49:46.780Z,0.03
2024-01-28T07:51:49.777Z,0.05
2024-01-28T07:53:53.856Z,0.09
2024-01-28T07:55:56.962Z,0.18
2024-01-28T07:57:58.838Z,0.18
2024-01-28T08:00:01.579Z,0.21
2024-01-28T08:02:14.693Z,0.21
2024-01-28T08:04:17.589Z,0.26
2024-01-28T08:06:20.454Z,0.30
2024-01-28T08:08:23.220Z,0.40
2024-01-28T08:10:27.768Z,0.45
2024-01-28T08:12:30.735Z,0.52
2024-01-28T08:14:33.523Z,0.53
2024-01-28T08:16:36.257Z,0.61
2024-01-28T08:18:40.293Z,0.70
2024-01-28T08:20:43.620Z,0.85
2024-01-28T08:22:46.437Z,0.89
2024-01-28T08:24:49.200Z,0.98
2024-01-28T08:26:53.401Z,1.04
2024-01-28T08:28:57.911Z,1.11
2024-01-28T08:31:00.789Z,1.20
2024-01-28T08:33:03.712Z,1.22
2024-01-28T08:35:06.922Z,1.24
2024-01-28T08:37:09.708Z,1.31
2024-01-28T08:39:15.383Z,1.33
2024-01-28T08:41:18.182Z,1.42
2024-01-28T08:43:22.228Z,1.51
2024-01-28T08:45:25.344Z,1.57
2024-01-28T08:47:30.729Z,1.65
2024-01-28T08:49:35.136Z,1.71
2024-01-28T08:51:37.896Z,1.79
2024-01-28T08:53:40.643Z,1.89
2024-01-28T08:55:42.568Z,1.99
2024-01-28T08:57:45.336Z,2.11
2024-01-28T08:59:49.403Z,2.23
2024-01-28T09:01:53.156Z,2.32
2024-01-28T09:03:56.070Z,2.47
2024-01-28T09:05:58.888Z,2.61
2024-01-28T09:08:01.622Z,2.75
2024-01-28T09:10:04.547Z,2.87
2024-01-28T09:12:07.940Z,3.00
2024-01-28T09:14:11.491Z,3.15
2024-01-28T09:16:15.718Z,3.26
2024-01-28T09:18:18.683Z,3.41
2024-01-28T09:20:21.435Z,3.52
2024-01-28T09:22:23.293Z,3.66
2024-01-28T09:24:25.994Z,3.81
2024-01-28T09:26:28.776Z,3.96
2024-01-28T09:28:31.571Z,4.12
2024-01-28T09:30:34.386Z,4.27
2024-01-28T09:32:38.547Z,4.42
2024-01-28T09:34:41.451Z,4.55
2024-01-28T09:36:44.317Z,4.67
2024-01-28T09:38:47.024Z,4.82
2024-01-28T09:40:50.075Z,4.95
2024-01-28T09:42:59.553Z,5.12
2024-01-28T09:45:02.485Z,5.31
2024-01-28T09:47:06.749Z,5.46
2024-01-28T09:49:12.948Z,5.62
2024-01-28T09:51:20.133Z,5.73
2024-01-28T09:53:23.289Z,5.83
2024-01-28T09:55:26.024Z,5.99
2024-01-28T09:57:29.967Z,6.09
2024-01-28T09:59:35.311Z,6.22
2024-01-28T10:01:38.430Z,6.29
2024-01-28T10:03:42.473Z,6.40
2024-01-28T10:05:46.811Z,6.50
2024-01-28T10:07:51.542Z,6.63
2024-01-28T10:09:54.494Z,6.78
2024-01-28T10:11:59.904Z,6.87
2024-01-28T10:14:02.648Z,6.95
2024-01-28T10:16:06.243Z,7.07
2024-01-28T10:18:08.110Z,7.24
2024-01-28T10:20:11.768Z,7.37
2024-01-28T10:22:15.982Z,7.51
2024-01-28T10:24:21.020Z,7.65
2024-01-28T10:26:23.861Z,7.70
2024-01-28T10:28:29.059Z,7.84
2024-01-28T10:30:31.910Z,7.96
2024-01-28T10:32:34.890Z,8.10
2024-01-28T10:34:37.674Z,8.23
2024-01-28T10:36:46.384Z,8.39
2024-01-28T10:38:53.444Z,8.43
2024-01-28T10:40:56.419Z,8.59
2024-01-28T10:43:03.094Z,8.81
2024-01-28T10:45:08.589Z,8.94
2024-01-28T10:47:13.486Z,9.04
2024-01-28T10:49:27.083Z,9.21
2024-01-28T10:51:30.270Z,9.32
2024-01-28T10:53:33.285Z,9.37
2024-01-28T10:55:38.386Z,9.50
2024-01-28T10:57:42.024Z,9.51
2024-01-28T10:59:44.147Z,9.59
2024-01-28T11:01:49.202Z,9.63
2024-01-28T11:03:53.666Z,9.65
2024-01-28T11:05:56.540Z,9.82
2024-01-28T11:08:01.814Z,9.92
2024-01-28T11:10:06.256Z,10.13
2024-01-28T11:12:11.039Z,10.21
2024-01-28T11:14:15.848Z,10.32
2024-01-28T11:16:20.445Z,10.50
2024-01-28T11:18:30.056Z,10.71
2024-01-28T11:20:34.827Z,10.92
2024-01-28T11:22:48.279Z,11.16
2024-01-28T11:24:54.303Z,11.34
2024-01-28T11:27:00.607Z,11.50
2024-01-28T11:29:08.237Z,11.55
2024-01-28T11:31:20.700Z,11.65
2024-01-28T11:33:23.653Z,11.83
2024-01-28T11:35:26.742Z,11.93
2024-01-28T11:37:29.881Z,12.10
2024-01-28T11:39:39.632Z,12.37
2024-01-28T11:41:45.137Z,12.56
2024-01-28T11:43:46.900Z,12.76
2024-01-28T11:45:51.262Z,12.91
2024-01-28T11:47:53.292Z,13.03
2024-01-28T11:49:57.435Z,13.01
2024-01-28T11:52:00.227Z,13.08
2024-01-28T11:54:04.932Z,13.24
2024-01-28T11:56:08.942Z,13.31
2024-01-28T11:58:11.683Z,13.48
2024-01-28T12:00:15.756Z,13.50
2024-01-28T12:02:20.947Z,13.62
2024-01-28T12:04:22.700Z,13.77
2024-01-28T12:06:28.152Z,13.86
2024-01-28T12:08:30.999Z,14.03
2024-01-28T12:10:33.744Z,14.08
2024-01-28T12:12:36.096Z,14.21
2024-01-28T12:14:39.947Z,14.30
2024-01-28T12:16:42.777Z,14.38
2024-01-28T12:18:47.428Z,14.45
2024-01-28T12:20:50.607Z,14.58
2024-01-28T12:22:56.267Z,14.66
2024-01-28T12:24:59.084Z,14.79
2024-01-28T12:27:01.863Z,14.80
2024-01-28T12:29:04.673Z,14.91
2024-01-28T12:31:10.274Z,14.93
2024-01-28T12:33:13.356Z,15.16
2024-01-28T12:35:17.673Z,15.24
2024-01-28T12:37:22.376Z,15.17
2024-01-28T12:39:26.548Z,15.35
2024-01-28T12:41:29.337Z,15.33
2024-01-28T12:43:32.512Z,15.48
2024-01-28T12:45:35.284Z,15.61
2024-01-28T12:47:38.528Z,15.64
2024-01-28T12:49:40.556Z,15.62
2024-01-28T12:51:45.148Z,15.78
2024-01-28T12:53:52.111Z,15.89
2024-01-28T12:55:54.914Z,15.90
2024-01-28T12:57:57.726Z,15.96
2024-01-28T13:00:00.721Z,16.18
2024-01-28T13:02:05.356Z,16.49
2024-01-28T13:04:07.367Z,16.51
2024-01-28T13:06:10.652Z,16.65
2024-01-28T13:08:15.003Z,16.69
2024-01-28T13:10:17.900Z,16.83
2024-01-28T13:12:22.065Z,17.00
2024-01-28T13:14:25.997Z,17.08
2024-01-28T13:16:28.839Z,17.23
2024-01-28T13:18:35.390Z,17.23
2024-01-28T13:20:39.369Z,17.19
2024-01-28T13:22:45.570Z,17.29
2024-01-28T13:24:53.804Z,17.41
2024-01-28T13:26:57.130Z,17.55
2024-01-28T13:28:59.876Z,17.68
2024-01-28T13:31:02.680Z,17.76
2024-01-28T13:33:06.217Z,17.82
2024-01-28T13:35:10.864Z,17.91
2024-01-28T13:37:14.317Z,17.91
2024-01-28T13:39:17.121Z,17.78
2024-01-28T13:41:21.212Z,17.85
2024-01-28T13:43:24.138Z,17.80
2024-01-28T13:45:25.985Z,17.75
2024-01-28T13:47:28.784Z,17.86
2024-01-28T13:49:31.898Z,17.98
2024-01-28T13:51:33.741Z,17.90
2024-01-28T13:53:37.934Z,17.77
2024-01-28T13:55:41.008Z,17.87
2024-01-28T13:57:45.199Z,18.08
2024-01-28T13:59:47.050Z,18.17
2024-01-28T14:01:49.840Z,18.30
2024-01-28T14:03:52.700Z,18.38
2024-01-28T14:05:55.464Z,18.46
2024-01-28T14:07:58.297Z,18.44
2024-01-28T14:10:01.102Z,18.61
2024-01-28T14:12:03.797Z,18.74
2024-01-28T14:14:06.891Z,18.84
2024-01-28T14:16:10.144Z,18.75
2024-01-28T14:18:12.956Z,18.82
2024-01-28T14:20:14.796Z,18.92
2024-01-28T14:22:17.462Z,18.93
2024-01-28T14:24:20.311Z,19.08
2024-01-28T14:26:23.401Z,19.31
2024-01-28T14:28:26.183Z,19.37
2024-01-28T14:30:30.329Z,19.38
2024-01-28T14:32:33.428Z,19.40
2024-01-28T14:34:36.441Z,19.25
2024-01-28T14:36:39.263Z,19.20
2024-01-28T14:38:41.039Z,18.90
2024-01-28T14:40:43.807Z,18.88
2024-01-28T14:42:46.734Z,19.03
2024-01-28T14:44:48.492Z,19.22
2024-01-28T14:46:52.605Z,19.39
2024-01-28T14:48:55.441Z,19.24
2024-01-28T14:50:59.220Z,19.31
2024-01-28T14:53:01.953Z,19.26
2024-01-28T14:55:05.800Z,19.13
2024-01-28T14:57:08.750Z,18.80
2024-01-28T14:59:11.626Z,18.69
2024-01-28T15:01:14.422Z,18.51
2024-01-28T15:03:19.265Z,18.75
2024-01-28T15:05:22.076Z,18.58
2024-01-28T15:07:25.523Z,18.61
2024-01-28T15:09:28.497Z,18.61
2024-01-28T15:11:31.327Z,18.29
2024-01-28T15:13:34.055Z,18.34
2024-01-28T15:15:37.001Z,18.04
2024-01-28T15:17:39.800Z,17.50
2024-01-28T15:19:44.688Z,16.98
2024-01-28T15:21:46.700Z,16.15
2024-01-28T15:23:53.374Z,15.80
2024-01-28T15:25:56.153Z,15.35
2024-01-28T15:27:58.955Z,14.77
2024-01-28T15:30:02.024Z,14.49
2024-01-28T15:32:05.370Z,14.20
2024-01-28T15:34:08.263Z,13.48
2024-01-28T15:36:14.229Z,13.05
2024-01-28T15:38:17.837Z,12.62
2024-01-28T15:40:20.837Z,12.53
2024-01-28T15:42:23.722Z,12.33
2024-01-28T15:44:26.540Z,12.20
2024-01-28T15:46:29.652Z,12.08
2024-01-28T15:48:34.845Z,12.00
2024-01-28T15:50:37.712Z,11.83
2024-01-28T15:52:41.839Z,11.61
2024-01-28T15:54:44.776Z,11.44
2024-01-28T15:56:47.751Z,11.41
2024-01-28T15:58:50.708Z,11.22
2024-01-28T16:00:53.494Z,11.05
2024-01-28T16:02:56.310Z,10.97
2024-01-28T16:04:59.151Z,10.78
2024-01-28T16:07:01.114Z,10.54
2024-01-28T16:09:05.412Z,10.41
2024-01-28T16:11:08.324Z,10.28
2024-01-28T16:13:11.049Z,10.13
2024-01-28T16:15:14.025Z,9.99
2024-01-28T16:17:19.982Z,9.83
2024-01-28T16:19:23.336Z,9.68
2024-01-28T16:21:26.188Z,9.62
2024-01-28T16:23:29.282Z,9.45
2024-01-28T16:25:33.421Z,9.29
2024-01-28T16:27:37.245Z,9.12
2024-01-28T16:29:41.800Z,8.91
2024-01-28T16:31:46.608Z,8.79
2024-01-28T16:33:49.480Z,8.72
2024-01-28T16:35:52.974Z,8.57
2024-01-28T16:37:55.744Z,8.46
2024-01-28T16:39:59.640Z,8.41
2024-01-28T16:42:02.774Z,8.33
2024-01-28T16:44:05.766Z,8.26
2024-01-28T16:46:07.739Z,8.10
2024-01-28T16:48:10.747Z,7.97
2024-01-28T16:50:14.420Z,7.77
2024-01-28T16:52:21.380Z,7.69
2024-01-28T16:54:24.598Z,7.60
2024-01-28T16:56:27.373Z,7.49
2024-01-28T16:58:31.528Z,7.45
2024-01-28T17:00:34.745Z,7.32
2024-01-28T17:02:37.704Z,7.20
2024-01-28T17:04:40.490Z,7.09
2024-01-28T17:06:44.287Z,7.01
2024-01-28T17:08:47.139Z,6.95
2024-01-28T17:10:49.893Z,6.86
2024-01-28T17:12:52.852Z,6.83
2024-01-28T17:14:57.567Z,6.83
2024-01-28T17:17:00.488Z,6.72
2024-01-28T17:19:02.354Z,6.61
2024-01-28T17:21:05.484Z,6.60
2024-01-28T17:23:09.839Z,6.55
2024-01-28T17:25:14.962Z,6.48
2024-01-28T17:27:18.005Z,6.45
2024-01-28T17:29:19.769Z,6.36
2024-01-28T17:31:23.990Z,6.33
2024-01-28T17:33:26.836Z,6.34
2024-01-28T17:35:30.680Z,6.30
2024-01-28T17:37:33.876Z,6.24
2024-01-28T17:39:36.766Z,6.18
2024-01-28T17:41:39.732Z,6.11
2024-01-28T17:43:42.467Z,6.03
2024-01-28T17:45:45.356Z,6.02
2024-01-28T17:47:49.697Z,5.95
2024-01-28T17:49:52.660Z,5.95
2024-01-28T17:51:55.845Z,5.84
2024-01-28T17:54:00.075Z,5.82
2024-01-28T17:56:02.051Z,5.77
2024-01-28T17:58:05.202Z,5.75
2024-01-28T18:00:09.568Z,5.71
2024-01-28T18:02:16.113Z,5.64
2024-01-28T18:04:20.196Z,5.58
2024-01-28T18:06:23.157Z,5.56
2024-01-28T18:08:26.420Z,5.57
2024-01-28T18:10:29.921Z,5.56
2024-01-28T18:12:33.360Z,5.59
2024-01-28T18:14:35.168Z,5.53
2024-01-28T18:16:38.355Z,5.57
2024-01-28T18:18:42.499Z,5.56
2024-01-28T18:20:47.851Z,5.51
2024-01-28T18:22:50.658Z,5.53
2024-01-28T18:24:53.458Z,5.50
2024-01-28T18:26:56.343Z,5.46
2024-01-28T18:28:59.328Z,5.40
2024-01-28T18:31:02.100Z,5.37
2024-01-28T18:33:05.762Z,5.34
2024-01-28T18:35:09.484Z,5.32
2024-01-28T18:37:13.600Z,5.30
2024-01-28T18:39:16.650Z,5.32
2024-01-28T18:41:19.522Z,5.23
2024-01-28T18:43:22.365Z,5.20
2024-01-28T18:45:25.209Z,5.17
2024-01-28T18:47:28.133Z,5.11
2024-01-28T18:49:31.119Z,5.07
2024-01-28T18:51:33.993Z,5.08
2024-01-28T18:53:38.162Z,5.12
2024-01-28T18:55:41.021Z,5.06
2024-01-28T18:57:43.825Z,5.00
2024-01-28T18:59:47.424Z,5.01
2024-01-28T19:01:50.188Z,4.91
2024-01-28T19:03:53.537Z,4.91
2024-01-28T19:05:56.550Z,4.87
2024-01-28T19:07:59.341Z,4.85
2024-01-28T19:10:03.693Z,4.83
2024-01-28T19:12:07.056Z,4.83
2024-01-28T19:14:12.197Z,4.79
2024-01-28T19:16:15.147Z,4.76
2024-01-28T19:18:20.670Z,4.74
2024-01-28T19:20:23.865Z,4.72
2024-01-28T19:22:26.706Z,4.75
2024-01-28T19:24:30.424Z,4.72
2024-01-28T19:26:34.706Z,4.68
2024-01-28T19:28:37.436Z,4.68
2024-01-28T19:30:40.309Z,4.68
2024-01-28T19:32:43.091Z,4.63
2024-01-28T19:34:46.116Z,4.63
2024-01-28T19:36:49.013Z,4.62
2024-01-28T19:38:50.860Z,4.62
2024-01-28T19:40:53.788Z,4.65
2024-01-28T19:42:58.051Z,4.61
2024-01-28T19:44:59.948Z,4.64
2024-01-28T19:47:02.686Z,4.64
2024-01-28T19:49:08.745Z,4.61
2024-01-28T19:51:11.763Z,4.60
2024-01-28T19:53:13.696Z,4.56
2024-01-28T19:55:16.681Z,4.53
2024-01-28T19:57:19.464Z,4.52
2024-01-28T19:59:24.141Z,4.50
2024-01-28T20:01:27.022Z,4.44
2024-01-28T20:03:30.525Z,4.42
2024-01-28T20:05:33.841Z,4.42
2024-01-28T20:07:35.817Z,4.38
2024-01-28T20:09:38.657Z,4.41
2024-01-28T20:11:41.471Z,4.43
2024-01-28T20:13:45.262Z,4.48
2024-01-28T20:15:49.783Z,4.46
2024-01-28T20:17:52.623Z,4.45
2024-01-28T20:19:57.157Z,4.43
2024-01-28T20:22:01.054Z,4.47
2024-01-28T20:24:03.898Z,4.45
2024-01-28T20:26:05.683Z,4.45
2024-01-28T20:28:08.583Z,4.44
2024-01-28T20:30:10.901Z,4.42
2024-01-28T20:32:15.494Z,4.44
2024-01-28T20:34:18.488Z,4.41
2024-01-28T20:36:23.435Z,4.40
2024-01-28T20:38:26.537Z,4.42
2024-01-28T20:40:29.496Z,4.43
2024-01-28T20:42:31.365Z,4.48
2024-01-28T20:44:35.725Z,4.42
2024-01-28T20:46:38.517Z,4.48
2024-01-28T20:48:46.178Z,4.47
2024-01-28T20:50:49.049Z,4.47
2024-01-28T20:52:51.839Z,4.43
2024-01-28T20:54:54.697Z,4.47
2024-01-28T20:57:07.367Z,4.40
2024-01-28T20:59:10.121Z,4.40
2024-01-28T21:01:12.976Z,4.42
2024-01-28T21:03:15.904Z,4.39
2024-01-28T21:05:20.096Z,4.33
2024-01-28T21:07:22.862Z,4.35
2024-01-28T21:09:26.432Z,4.32
2024-01-28T21:11:29.321Z,4.30
2024-01-28T21:13:31.158Z,4.30
2024-01-28T21:15:34.470Z,4.33
2024-01-28T21:17:37.457Z,4.31
2024-01-28T21:19:40.380Z,4.34
2024-01-28T21:21:44.550Z,4.34
2024-01-28T21:23:47.512Z,4.32
2024-01-28T21:25:50.651Z,4.35
2024-01-28T21:27:54.053Z,4.37
2024-01-28T21:29:56.841Z,4.38
2024-01-28T21:32:00.246Z,4.38
2024-01-28T21:34:02.340Z,4.38
2024-01-28T21:36:05.819Z,4.37
2024-01-28T21:38:08.972Z,4.34
2024-01-28T21:40:12.989Z,4.29
2024-01-28T21:42:15.834Z,4.25
2024-01-28T21:44:18.723Z,4.19
2024-01-28T21:46:21.588Z,4.14
2024-01-28T21:48:24.393Z,4.05
2024-01-28T21:50:27.250Z,3.92
2024-01-28T21:52:30.011Z,3.80
2024-01-28T21:54:34.191Z,3.70
2024-01-28T21:56:36.986Z,3.62
2024-01-28T21:58:39.829Z,3.51
2024-01-28T22:00:42.832Z,3.48
2024-01-28T22:02:46.501Z,3.46
2024-01-28T22:04:49.269Z,3.46
2024-01-28T22:06:52.061Z,3.44
2024-01-28T22:08:55.177Z,3.40
2024-01-28T22:10:59.302Z,3.49
2024-01-28T22:13:02.421Z,3.47
2024-01-28T22:15:06.008Z,3.51
2024-01-28T22:17:08.905Z,3.53
2024-01-28T22:19:11.743Z,3.49
2024-01-28T22:21:14.645Z,3.46
2024-01-28T22:23:17.982Z,3.47
2024-01-28T22:25:20.707Z,3.51
2024-01-28T22:27:25.704Z,3.51
2024-01-28T22:29:28.466Z,3.47
2024-01-28T22:31:30.250Z,3.49
2024-01-28T22:33:33.164Z,3.51
2024-01-28T22:35:36.037Z,3.45
2024-01-28T22:37:38.839Z,3.54
2024-01-28T22:39:42.834Z,3.48
2024-01-28T22:41:45.603Z,3.47
2024-01-28T22:43:49.699Z,3.56
2024-01-28T22:45:53.140Z,3.56
2024-01-28T22:47:56.055Z,3.54
2024-01-28T22:49:59.071Z,3.53
2024-01-28T22:52:01.871Z,3.51
2024-01-28T22:54:04.804Z,3.52
2024-01-28T22:56:08.858Z,3.51
2024-01-28T22:58:11.671Z,3.54
2024-01-28T23:00:25.535Z,3.52
2024-01-28T23:02:29.658Z,3.50
2024-01-28T23:04:32.518Z,3.49
2024-01-28T23:06:35.296Z,3.47
2024-01-28T23:08:38.022Z,3.45
2024-01-28T23:10:40.768Z,3.47
2024-01-28T23:12:43.762Z,3.49
2024-01-28T23:14:46.550Z,3.46
2024-01-28T23:16:50.208Z,3.55
2024-01-28T23:18:53.452Z,3.53
2024-01-28T23:20:56.302Z,3.50
2024-01-28T23:22:59.081Z,3.50
2024-01-28T23:25:01.924Z,3.49
2024-01-28T23:27:05.176Z,3.46
2024-01-28T23:29:06.993Z,3.48
2024-01-28T23:31:09.987Z,3.48
2024-01-28T23:33:14.243Z,3.51
2024-01-28T23:35:17.146Z,3.52
2024-01-28T23:37:18.920Z,3.54
2024-01-28T23:39:21.782Z,3.55
2024-01-28T23:41:25.191Z,3.53
2024-01-28T23:43:27.955Z,3.52
2024-01-28T23:45:31.113Z,3.61
2024-01-28T23:47:33.998Z,3.66
2024-01-28T23:49:38.412Z,3.65
2024-01-28T23:51:41.412Z,3.67
2024-01-28T23:53:44.203Z,3.68
2024-01-28T23:55:47.019Z,3.69
2024-01-28T23:57:49.895Z,3.71
2024-01-28T23:59:51.814Z,3.72
